Latest Coastal Weather Observations for Wilsons Promontory

IDV60701

Issued at 8:15 am EST Thursday 21 August 2014 (issued every 10 minutes, with the page automatically refreshed every 10 minutes)

About coastal observations | Map of coastal stations | Coastal observations for VIC | Marine services | Other Formats
Station Details ID: 085096 Name: WILSONS PROMONTORY LIGHTHOUSE Lat: -39.13 Lon: 146.42 Height: 95.0 m
Data from the previous 72 hours. | See also: Recent months at Wilsons Promontory
Date/Time
EST
Temp

°C
Wind Pressure Rain
since 9am
mm
Weather Cloud Vis
km
Sea
Height
m
Swell
Dir
 
Speed
knots
Gust
knots
hPa Trend Height
m
Period
s
Dir
21/08:00am 11.4 ENE 22 25 1029.6 - 0.0 - - - - - - -
21/07:30am 11.1 ENE 22 25 1029.3 - 0.0 - - - - - - -
21/07:00am 11.0 ENE 22 25 1029.1 - 0.0 - - - - - - -
21/06:30am 11.0 ENE 22 25 1028.9 - 0.0 - - - - - - -
21/06:00am 10.8 ENE 20 23 1028.9 - 0.0 - - - - - - -
21/05:30am 10.9 ENE 17 20 1028.7 - 0.0 - - - - - - -
21/05:00am 10.8 ENE 17 19 1028.6 - 0.0 - - - - - - -
21/04:30am 10.7 ENE 14 19 1028.5 - 0.0 - - - - - - -
21/04:00am 10.4 NE 13 17 1028.3 - 0.0 - - - - - - -
21/03:30am 9.5 NE 7 10 1028.3 - 0.0 - - - - - - -
21/03:00am 9.2 NNE 6 8 1028.2 - 0.0 - - - - - - -
21/02:30am 9.8 ENE 13 16 1028.3 - 0.0 - - - - - - -
21/02:00am 10.3 ENE 15 18 1028.4 - 0.0 - - - - - - -
21/01:30am 10.4 NNE 5 7 1028.5 - 0.0 - - - - - - -
21/01:00am 10.1 N 6 8 1028.5 - 0.0 - - - - - - -
21/12:30am 10.0 NNE 6 8 1028.6 - 0.0 - - - - - - -
21/12:00am 10.2 ENE 7 9 1028.6 - 0.0 - - - - - - -
 
Date/Time
EST
Temp

°C
Wind Pressure Rain
since 9am
mm
Weather Cloud Vis
km
Sea
Height
m
Swell
Dir
 
Speed
knots
Gust
knots
hPa Trend Height
m
Period
s
Dir
20/11:30pm 9.9 NNE 6 8 1028.5 - 0.0 - - - - - - -
20/11:00pm 10.0 NNE 1 4 1028.4 - 0.0 - - - - - - -
20/10:30pm 9.9 NNE 3 4 1028.5 - 0.0 - - - - - - -
20/10:00pm 9.9 NE 4 5 1028.6 - 0.0 - - - - - - -
20/09:30pm 9.8 NE 4 5 1028.6 - 0.0 - - - - - - -
20/09:00pm 9.9 E 4 5 1028.5 - 0.0 - - - - - - -
20/08:30pm 9.7 CALM 0 0 1028.2 - 0.0 - - - - - - -
20/08:00pm 9.8 CALM 0 2 1028.1 - 0.0 - - - - - - -
20/07:30pm 10.1 W 4 5 1027.9 - 0.0 - - - - - - -
20/07:00pm 10.2 WSW 4 7 1027.7 - 0.0 - - - - - - -
20/06:30pm 10.3 W 4 7 1027.4 - 0.0 - - - - - - -
20/06:00pm 10.4 SW 7 9 1027.0 - 0.0 - - - - - - -
20/05:30pm 10.5 W 5 8 1026.7 - 0.0 - - - - - - -
20/05:00pm 10.5 W 6 9 1026.4 - 0.0 - - - - - - -
20/04:30pm 10.7 WSW 11 15 1026.1 - 0.0 - - - - - - -
20/04:00pm 10.8 WSW 11 14 1025.9 - 0.0 - - - - - - -
20/03:30pm 11.0 WSW 13 15 1025.6 - 0.0 - - - - - - -
20/03:00pm 10.7 WSW 14 18 1025.7 - 0.0 - - - - - - -
20/02:30pm 10.9 W 11 15 1025.4 - 0.0 - - - - - - -
20/02:00pm 11.1 W 12 15 1025.3 - 0.0 - - - - - - -
20/01:30pm 10.9 W 12 16 1025.3 - 0.0 - - - - - - -
20/01:00pm 11.0 WSW 12 16 1025.4 - 0.0 - - - - - - -
20/12:30pm 10.9 WSW 14 17 1025.6 - 0.0 - - - - - - -
20/12:00pm 11.2 WSW 14 18 1026.0 - 0.0 - - - - - - -
20/11:30am 11.0 WSW 14 18 1026.0 - 0.0 - - - - - - -
20/11:00am 10.6 WSW 12 15 1026.2 - 0.0 - - - - - - -
20/10:30am 9.7 WSW 17 20 1026.1 - 0.0 - - - - - - -
20/10:00am 10.6 SW 13 16 1026.1 - 0.0 - - - - - - -
20/09:30am 10.7 SW 8 11 1025.9 - 0.0 - - - - - - -
20/09:00am 9.8 ESE 7 15 1025.8 - 0.0 - - - - - - -
20/08:30am 10.4 SW 9 15 1025.5 - 0.0 - - - - - - -
20/08:00am 10.0 SW 11 17 1025.3 - 0.0 - - - - - - -
20/07:30am 9.3 WNW 4 7 1025.3 - 0.0 - - - - - - -
20/07:00am 9.3 SW 14 19 1024.9 - 0.0 - - - - - - -
20/06:30am 9.0 WSW 8 12 1024.2 - 0.0 - - - - - - -
20/06:00am 9.0 W 9 13 1024.6 - 0.0 - - - - - - -
20/05:30am 9.7 WSW 21 27 1023.9 - 0.0 - - - - - - -
20/05:22am 10.5 SW 15 25 1023.8 - 0.0 - - - - - - -
20/05:00am 10.1 SW 11 18 1023.9 - 0.0 - - - - - - -
20/04:30am 10.0 SW 15 23 1024.0 - 0.0 - - - - - - -
20/04:00am 10.0 WSW 11 14 1024.1 - 0.0 - - - - - - -
20/03:30am 10.0 SW 16 21 1023.9 - 0.0 - - - - - - -
20/03:00am 9.8 SW 15 22 1023.8 - 0.0 - - - - - - -
20/02:30am 10.5 NE 8 20 1023.7 - 0.0 - - - - - - -
20/02:00am 10.8 SW 12 18 1024.1 - 0.0 - - - - - - -
20/01:30am 11.0 WSW 15 20 1024.3 - 0.0 - - - - - - -
20/01:00am 10.9 SW 18 26 1024.3 - 0.0 - - - - - - -
20/12:46am 11.0 SW 20 23 1024.1 - 0.0 - - - - - - -
20/12:30am 10.9 W 10 14 1024.4 - 0.0 - - - - - - -
20/12:00am 10.7 W 8 12 1024.8 - 0.0 - - - - - - -
 
Date/Time
EST
Temp

°C
Wind Pressure Rain
since 9am
mm
Weather Cloud Vis
km
Sea
Height
m
Swell
Dir
 
Speed
knots
Gust
knots
hPa Trend Height
m
Period
s
Dir
19/11:30pm 10.9 SW 15 21 1024.4 - 0.0 - - - - - - -
19/11:00pm 10.5 W 8 13 1024.6 - 0.0 - - - - - - -
19/10:30pm 10.3 W 9 11 1024.6 - 0.0 - - - - - - -
19/10:00pm 10.0 W 9 13 1024.7 - 0.0 - - - - - - -
19/09:30pm 10.5 WSW 9 13 1024.7 - 0.0 - - - - - - -
19/09:00pm 10.5 WSW 13 18 1024.8 - 0.0 - - - - - - -
19/08:30pm 10.5 WSW 15 19 1024.5 - 0.0 - - - - - - -
19/08:00pm 10.4 WSW 15 18 1024.5 - 0.0 - - - - - - -
19/07:30pm 10.4 W 11 20 1024.3 - 0.0 - - - - - - -
19/07:00pm 10.3 SW 18 21 1024.1 - 0.0 - - - - - - -
19/06:30pm 10.5 SW 13 22 1023.7 - 0.0 - - - - - - -
19/06:00pm 10.6 W 8 19 1023.4 - 0.0 - - - - - - -
19/05:30pm 10.8 SW 19 22 1023.2 - 0.0 - - - - - - -
19/05:00pm 10.9 SW 16 22 1022.8 - 0.0 - - - - - - -
19/04:30pm 11.4 W 10 15 1023.0 - 0.0 - - - - - - -
19/04:00pm 11.3 W 13 15 1023.0 - 0.0 - - - - - - -
19/03:30pm 11.3 W 12 16 1023.0 - 0.0 - - - - - - -
19/03:00pm 11.4 W 10 15 1023.2 - 0.0 - - - - - - -
19/02:30pm 11.7 WSW 12 16 1023.0 - 0.0 - - - - - - -
19/02:00pm 11.9 WSW 13 17 1022.8 - 0.0 - - - - - - -
19/01:30pm 11.7 WSW 13 16 1022.8 - 0.0 - - - - - - -
19/01:00pm 12.2 SW 11 15 1023.1 - 0.0 - - - - - - -
19/12:30pm 12.1 SSW 6 12 1023.4 - 0.0 - - - - - - -
19/12:00pm 11.9 NW 5 12 1023.8 - 0.0 - - - - - - -
19/11:30am 11.9 SW 7 11 1024.0 - 0.0 - - - - - - -
19/11:00am 11.7 SW 8 13 1024.1 - 0.0 - - - - - - -
19/10:30am 11.5 SW 5 9 1024.1 - 0.0 - - - - - - -
19/10:00am 11.3 S 6 9 1024.1 - 0.0 - - - - - - -
19/09:30am 11.2 S 8 13 1024.1 - 0.0 - - - - - - -
19/09:00am 11.2 SSW 4 7 1024.1 - 0.0 - - - - - - -
19/08:30am 11.2 S 5 9 1024.0 - 0.0 - - - - - - -
19/08:00am 10.9 SSE 5 8 1023.8 - 0.0 - - - - - - -
19/07:30am 10.7 S 3 5 1023.7 - 0.0 - - - - - - -
19/07:00am 10.7 SSE 6 8 1023.4 - 0.0 - - - - - - -
19/06:30am 10.6 S 8 10 1023.1 - 0.0 - - - - - - -
19/06:00am 10.6 SSW 5 8 1023.1 - 0.0 - - - - - - -
19/05:30am 10.5 S 8 14 1022.8 - 0.0 - - - - - - -
19/05:00am 10.7 SE 9 11 1022.7 - 0.0 - - - - - - -
19/04:30am 10.6 SSE 7 9 1022.6 - 0.0 - - - - - - -
19/04:00am 10.5 SSE 8 10 1022.6 - 0.0 - - - - - - -
19/03:30am 10.3 SSE 11 13 1022.7 - 0.0 - - - - - - -
19/03:00am 10.3 SSE 15 19 1022.8 - 0.0 - - - - - - -
19/02:30am 10.3 ESE 11 15 1022.8 - 0.0 - - - - - - -
19/02:00am 10.8 SE 13 16 1022.9 - 0.0 - - - - - - -
19/01:30am 10.8 SSE 16 18 1022.9 - 0.0 - - - - - - -
19/01:00am 11.1 SSE 12 15 1022.9 - 0.0 - - - - - - -
19/12:30am 11.0 SE 13 18 1022.9 - 0.0 - - - - - - -
19/12:00am 11.0 SE 14 16 1022.9 - 0.0 - - - - - - -
 
Date/Time
EST
Temp

°C
Wind Pressure Rain
since 9am
mm
Weather Cloud Vis
km
Sea
Height
m
Swell
Dir
 
Speed
knots
Gust
knots
hPa Trend Height
m
Period
s
Dir
18/11:30pm 11.0 SE 13 16 1022.9 - 0.0 - - - - - - -
18/11:00pm 11.0 SE 13 15 1022.8 - 0.0 - - - - - - -
18/10:30pm 11.1 SE 13 15 1022.7 - 0.0 - - - - - - -
18/10:00pm 11.4 SE 13 16 1022.8 - 0.0 - - - - - - -
18/09:30pm 11.4 ESE 14 17 1022.6 - 0.0 - - - - - - -
18/09:00pm 11.6 ESE 13 16 1022.6 - 0.0 - - - - - - -
18/08:30pm 11.3 ESE 15 19 1022.4 - 0.0 - - - - - - -
18/08:00pm 11.6 SE 16 19 1022.3 - 0.0 - - - - - - -
18/07:30pm 11.5 ESE 17 20 1022.1 - 0.0 - - - - - - -
18/07:00pm 11.5 ESE 17 20 1021.8 - 0.0 - - - - - - -
18/06:30pm 11.5 SE 17 20 1021.6 - 0.0 - - - - - - -
18/06:00pm 11.3 SE 18 20 1021.5 - 0.0 - - - - - - -
18/05:30pm 11.4 SE 17 20 1021.0 - 0.0 - - - - - - -
18/05:00pm 11.6 ESE 15 19 1020.8 - 0.0 - - - - - - -
18/04:30pm 11.5 ESE 16 19 1020.5 - 0.0 - - - - - - -
18/04:00pm 11.5 SE 15 17 1020.5 - 0.0 - - - - - - -
18/03:30pm 11.5 ESE 15 17 1020.4 - 0.0 - - - - - - -
18/03:00pm 11.3 SE 15 18 1020.5 - 0.0 - - - - - - -
18/02:30pm 11.2 ESE 16 19 1020.2 - 0.0 - - - - - - -
18/02:00pm 11.6 SE 17 22 1020.2 - 0.0 - - - - - - -
18/01:30pm 11.7 SE 17 20 1020.2 - 0.0 - - - - - - -
18/01:00pm 11.5 SE 16 20 1020.3 - 0.0 - - - - - - -
18/12:30pm 11.6 SE 18 21 1020.5 - 0.0 - - - - - - -
18/12:00pm 11.6 SE 20 23 1020.8 - 0.0 - - - - - - -
18/11:30am 11.7 SE 18 21 1021.0 - 0.0 - - - - - - -
18/11:00am 11.5 SE 19 23 1021.2 - 0.0 - - - - - - -
18/10:30am 11.4 SE 19 24 1021.1 - 0.0 - - - - - - -
18/10:00am 11.4 SE 19 22 1021.1 - 0.0 - - - - - - -
18/09:30am 11.4 SE 21 25 1021.1 - 0.0 - - - - - - -
18/09:00am 11.3 ESE 21 25 1021.0 - 0.0 - - - - - - -
18/08:30am 11.2 SE 20 23 1020.8 - 0.0 - - - - - - -

Other Formats:

Comma delimited format used in spreadsheet applications
http://www.bom.gov.au/fwo/IDV60701/IDV60701.94893.axf

JavaScript Object Notation format (JSON) in row-major order
http://www.bom.gov.au/fwo/IDV60701/IDV60701.94893.json